createdAt,value
2023-02-26T00:00:39.000Z,2.4
2023-02-26T00:04:07.000Z,2.9
2023-02-26T00:07:35.000Z,2.7
2023-02-26T00:10:24.000Z,2.6
2023-02-26T00:13:53.000Z,2.7
2023-02-26T00:17:21.000Z,2.7
2023-02-26T00:20:49.000Z,2.7
2023-02-26T00:24:17.000Z,2.7
2023-02-26T00:27:45.000Z,3.1
2023-02-26T00:31:12.000Z,2.6
2023-02-26T00:34:41.000Z,2.4
2023-02-26T00:38:09.000Z,2.5
2023-02-26T00:41:37.000Z,2.6
2023-02-26T00:45:05.000Z,2.4
2023-02-26T00:47:54.000Z,2.5
2023-02-26T00:51:22.000Z,2.5
2023-02-26T00:54:50.000Z,2.3
2023-02-26T00:58:18.000Z,2.4
2023-02-26T01:01:46.000Z,2.5
2023-02-26T01:05:14.000Z,2.1
2023-02-26T01:08:42.000Z,2
2023-02-26T01:12:10.000Z,1.8
2023-02-26T01:15:38.000Z,2.1
2023-02-26T01:19:06.000Z,2.1
2023-02-26T01:22:34.000Z,1.9
2023-02-26T01:25:23.000Z,1.9
2023-02-26T01:28:51.000Z,2.2
2023-02-26T01:32:19.000Z,1.9
2023-02-26T01:35:47.000Z,2
2023-02-26T01:39:15.000Z,1.7
2023-02-26T01:42:43.000Z,1.7
2023-02-26T01:46:11.000Z,1.9
2023-02-26T01:49:39.000Z,2
2023-02-26T01:53:07.000Z,2.2
2023-02-26T01:56:35.000Z,1.8
2023-02-26T02:00:03.000Z,2
2023-02-26T02:02:52.000Z,2.2
2023-02-26T02:06:20.000Z,2.1
2023-02-26T02:09:48.000Z,2.2
2023-02-26T02:13:16.000Z,2.3
2023-02-26T02:16:44.000Z,1.9
2023-02-26T02:20:12.000Z,1.9
2023-02-26T02:23:40.000Z,2
2023-02-26T02:27:08.000Z,1.9
2023-02-26T02:30:36.000Z,2.4
2023-02-26T02:34:05.000Z,1.9
2023-02-26T02:37:33.000Z,1.9
2023-02-26T02:40:22.000Z,1.9
2023-02-26T02:43:50.000Z,1.9
2023-02-26T02:47:18.000Z,1.8
2023-02-26T02:50:46.000Z,2.1
2023-02-26T02:54:14.000Z,2
2023-02-26T02:57:42.000Z,1.8
2023-02-26T03:01:10.000Z,2.3
2023-02-26T03:04:38.000Z,2
2023-02-26T03:08:05.000Z,2.1
2023-02-26T03:11:33.000Z,2.2
2023-02-26T03:15:01.000Z,2.5
2023-02-26T03:17:50.000Z,1.8
2023-02-26T03:21:18.000Z,2.4
2023-02-26T03:24:46.000Z,2.8
2023-02-26T03:28:14.000Z,2.5
2023-02-26T03:31:42.000Z,2.8
2023-02-26T03:35:10.000Z,2.4
2023-02-26T03:38:38.000Z,2.4
2023-02-26T03:42:06.000Z,2.4
2023-02-26T03:45:34.000Z,2.4
2023-02-26T03:49:02.000Z,2.7
2023-02-26T03:52:30.000Z,2.8
2023-02-26T03:55:19.000Z,3.1
2023-02-26T03:58:47.000Z,2.7
2023-02-26T04:02:15.000Z,2.6
2023-02-26T04:05:43.000Z,2.9
2023-02-26T04:09:11.000Z,2.5
2023-02-26T04:12:38.000Z,3
2023-02-26T04:16:06.000Z,2.5
2023-02-26T04:19:35.000Z,3
2023-02-26T04:23:02.000Z,2.6
2023-02-26T04:26:30.000Z,2.5
2023-02-26T04:29:58.000Z,2.6
2023-02-26T04:32:48.000Z,2.8
2023-02-26T04:36:16.000Z,2.5
2023-02-26T04:39:44.000Z,2.7
2023-02-26T04:43:12.000Z,2.7
2023-02-26T04:46:40.000Z,2.5
2023-02-26T04:50:08.000Z,2.7
2023-02-26T04:53:36.000Z,2.8
2023-02-26T04:57:03.000Z,2.8
2023-02-26T05:00:31.000Z,3.2
2023-02-26T05:03:59.000Z,3.2
2023-02-26T05:07:27.000Z,2.9
2023-02-26T05:10:17.000Z,3.1
2023-02-26T05:13:45.000Z,3.1
2023-02-26T05:17:13.000Z,3.4
2023-02-26T05:20:40.000Z,3.2
2023-02-26T05:24:08.000Z,2.8
2023-02-26T05:27:36.000Z,3.3
2023-02-26T05:31:04.000Z,3.2
2023-02-26T05:34:32.000Z,3
2023-02-26T05:38:00.000Z,2.4
2023-02-26T05:41:28.000Z,3.3
2023-02-26T05:44:56.000Z,3
2023-02-26T05:47:45.000Z,2.4
2023-02-26T05:51:13.000Z,3.1
2023-02-26T05:54:41.000Z,2.9
2023-02-26T05:58:09.000Z,3.1
2023-02-26T06:01:37.000Z,3.3
2023-02-26T06:05:04.000Z,3.1
2023-02-26T06:08:32.000Z,3.1
2023-02-26T06:12:00.000Z,2.8
2023-02-26T06:15:28.000Z,2.6
2023-02-26T06:18:56.000Z,3.1
2023-02-26T06:22:24.000Z,3.5
2023-02-26T06:25:13.000Z,2.9
2023-02-26T06:28:41.000Z,3.2
2023-02-26T06:32:09.000Z,2.9
2023-02-26T06:35:37.000Z,2.9
2023-02-26T06:39:05.000Z,2.9
2023-02-26T06:42:33.000Z,2.8
2023-02-26T06:46:01.000Z,2.3
2023-02-26T06:49:29.000Z,2.5
2023-02-26T06:52:57.000Z,4.2
2023-02-26T06:56:25.000Z,5.2
2023-02-26T06:59:53.000Z,5.3
2023-02-26T07:02:43.000Z,4.1
2023-02-26T07:06:11.000Z,4.3
2023-02-26T07:09:48.000Z,3.3
2023-02-26T07:13:16.000Z,3
2023-02-26T07:16:44.000Z,2.8
2023-02-26T07:20:12.000Z,3.1
2023-02-26T07:23:40.000Z,3
2023-02-26T07:27:07.000Z,2.5
2023-02-26T07:30:35.000Z,3.1
2023-02-26T07:34:04.000Z,1.1
2023-02-26T07:37:31.000Z,3.2
2023-02-26T07:42:47.000Z,3.2
2023-02-26T07:46:15.000Z,2.7
2023-02-26T07:49:44.000Z,3
2023-02-26T07:53:11.000Z,3.3
2023-02-26T07:56:39.000Z,3.1
2023-02-26T08:00:07.000Z,3.3
2023-02-26T08:03:35.000Z,2
2023-02-26T08:07:03.000Z,2.2
2023-02-26T08:10:31.000Z,1.9
2023-02-26T08:14:02.000Z,2.7
2023-02-26T08:17:30.000Z,2.2
2023-02-26T08:20:13.000Z,2.3
2023-02-26T08:23:41.000Z,2.7
2023-02-26T08:27:09.000Z,2.5
2023-02-26T08:30:37.000Z,1.9
2023-02-26T08:34:05.000Z,1.5
2023-02-26T08:37:32.000Z,2.3
2023-02-26T08:41:00.000Z,2.7
2023-02-26T08:44:28.000Z,2.4
2023-02-26T08:47:56.000Z,2.3
2023-02-26T08:51:24.000Z,2.5
2023-02-26T08:54:52.000Z,2.6
2023-02-26T08:57:42.000Z,3
2023-02-26T09:01:10.000Z,2.4
2023-02-26T09:04:38.000Z,2.8
2023-02-26T09:08:06.000Z,2.4
2023-02-26T09:11:33.000Z,2.3
2023-02-26T09:15:01.000Z,2.4
2023-02-26T09:18:29.000Z,2.3
2023-02-26T09:21:57.000Z,1.6
2023-02-26T09:25:26.000Z,1.8
2023-02-26T09:28:54.000Z,2.1
2023-02-26T09:32:22.000Z,1.8
2023-02-26T09:35:12.000Z,2
2023-02-26T09:38:40.000Z,1.4
2023-02-26T09:42:07.000Z,1.9
2023-02-26T09:45:35.000Z,1.8
2023-02-26T09:49:05.000Z,1.9
2023-02-26T09:52:33.000Z,1.9
2023-02-26T09:56:00.000Z,0.9
2023-02-26T09:59:28.000Z,1.4
2023-02-26T10:02:56.000Z,1.5
2023-02-26T10:06:25.000Z,1.5
2023-02-26T10:09:53.000Z,1.1
2023-02-26T10:12:42.000Z,1.1
2023-02-26T10:16:11.000Z,1.7
2023-02-26T10:19:40.000Z,2
2023-02-26T10:23:11.000Z,2.4
2023-02-26T10:26:44.000Z,1.7
2023-02-26T10:30:16.000Z,1.7
2023-02-26T10:33:49.000Z,1.3
2023-02-26T10:37:22.000Z,1.1
2023-02-26T10:40:54.000Z,1.3
2023-02-26T10:44:27.000Z,1.9
2023-02-26T10:48:00.000Z,0.9
2023-02-26T10:50:51.000Z,1.3
2023-02-26T10:54:24.000Z,1.2
2023-02-26T10:57:56.000Z,1.5
2023-02-26T11:01:29.000Z,1
2023-02-26T11:05:02.000Z,1.1
2023-02-26T11:08:34.000Z,1.4
2023-02-26T11:12:07.000Z,2.3
2023-02-26T11:15:40.000Z,1.6
2023-02-26T11:19:12.000Z,1.5
2023-02-26T11:22:45.000Z,1.8
2023-02-26T11:26:18.000Z,0.9
2023-02-26T11:29:09.000Z,1.4
2023-02-26T11:32:41.000Z,0.6
2023-02-26T11:36:14.000Z,1
2023-02-26T11:39:47.000Z,1.4
2023-02-26T11:43:20.000Z,1.6
2023-02-26T11:46:52.000Z,1.7
2023-02-26T11:50:25.000Z,0.9
2023-02-26T11:53:57.000Z,1.3
2023-02-26T11:57:30.000Z,0.9
2023-02-26T12:01:03.000Z,1.1
2023-02-26T12:04:35.000Z,1
2023-02-26T12:07:26.000Z,0.7
2023-02-26T12:10:59.000Z,1
2023-02-26T12:14:32.000Z,1
2023-02-26T12:18:04.000Z,1.1
2023-02-26T12:21:40.000Z,1.3
2023-02-26T12:25:13.000Z,1.6
2023-02-26T12:28:46.000Z,1.6
2023-02-26T12:32:18.000Z,1.2
2023-02-26T12:35:51.000Z,1.1
2023-02-26T12:39:24.000Z,1.4
2023-02-26T12:42:57.000Z,1.1
2023-02-26T12:45:48.000Z,1.2
2023-02-26T12:49:20.000Z,1.3
2023-02-26T12:52:53.000Z,0.9
2023-02-26T12:56:26.000Z,0.7
2023-02-26T12:59:58.000Z,1
2023-02-26T13:03:32.000Z,0.4
2023-02-26T13:07:05.000Z,1.1
2023-02-26T13:10:37.000Z,1.1
2023-02-26T13:14:10.000Z,1.3
2023-02-26T13:17:43.000Z,1.7
2023-02-26T13:21:15.000Z,1.1
2023-02-26T13:24:07.000Z,1.3
2023-02-26T13:27:39.000Z,1
2023-02-26T13:31:12.000Z,0.5
2023-02-26T13:34:45.000Z,1.1
2023-02-26T13:38:17.000Z,0.6
2023-02-26T13:41:50.000Z,0.8
2023-02-26T13:45:22.000Z,0.9
2023-02-26T13:48:55.000Z,0.9
2023-02-26T13:52:28.000Z,1.1
2023-02-26T13:56:01.000Z,2
2023-02-26T13:59:33.000Z,1.2
2023-02-26T14:02:24.000Z,1.3
2023-02-26T14:05:57.000Z,1.1
2023-02-26T14:09:30.000Z,3.8
2023-02-26T14:13:02.000Z,1.9
2023-02-26T14:16:35.000Z,1.3
2023-02-26T14:20:08.000Z,0.9
2023-02-26T14:23:40.000Z,1.7
2023-02-26T14:27:13.000Z,1.3
2023-02-26T14:30:46.000Z,1.4
2023-02-26T14:34:18.000Z,1.2
2023-02-26T14:37:51.000Z,0.8
2023-02-26T14:40:43.000Z,0.8
2023-02-26T14:44:15.000Z,0.9
2023-02-26T14:47:48.000Z,0.9
2023-02-26T14:51:21.000Z,1
2023-02-26T14:54:54.000Z,1
2023-02-26T14:58:26.000Z,1.4
2023-02-26T15:01:59.000Z,0.8
2023-02-26T15:05:32.000Z,0.9
2023-02-26T15:09:04.000Z,1
2023-02-26T15:12:37.000Z,1.1
2023-02-26T15:16:10.000Z,0.9
2023-02-26T15:19:01.000Z,0.7
2023-02-26T15:22:34.000Z,0.8
2023-02-26T15:26:06.000Z,1.1
2023-02-26T15:29:39.000Z,2.2
2023-02-26T15:33:12.000Z,1.5
2023-02-26T15:36:45.000Z,1.8
2023-02-26T15:40:18.000Z,1.9
2023-02-26T15:43:51.000Z,2.5
2023-02-26T15:47:24.000Z,2.1
2023-02-26T15:50:56.000Z,3.9
2023-02-26T15:54:29.000Z,2.5
2023-02-26T15:57:20.000Z,2.6
2023-02-26T16:00:53.000Z,2.6
2023-02-26T16:04:26.000Z,1.6
2023-02-26T16:07:58.000Z,1.7
2023-02-26T16:11:31.000Z,1.9
2023-02-26T16:15:04.000Z,1.8
2023-02-26T16:18:36.000Z,1.9
2023-02-26T16:22:09.000Z,1.7
2023-02-26T16:25:42.000Z,1.9
2023-02-26T16:29:15.000Z,9.9
2023-02-26T16:32:48.000Z,2.5
2023-02-26T16:35:39.000Z,2.4
2023-02-26T16:39:12.000Z,2.4
2023-02-26T16:42:44.000Z,1.6
2023-02-26T16:46:17.000Z,1.6
2023-02-26T16:49:49.000Z,2.1
2023-02-26T16:53:22.000Z,1.5
2023-02-26T16:56:55.000Z,1.3
2023-02-26T17:00:27.000Z,1.2
2023-02-26T17:04:00.000Z,1
2023-02-26T17:07:33.000Z,1.1
2023-02-26T17:11:05.000Z,0.9
2023-02-26T17:13:56.000Z,1
2023-02-26T17:17:27.000Z,1.5
2023-02-26T17:20:58.000Z,1.3
2023-02-26T17:24:27.000Z,2.5
2023-02-26T17:27:57.000Z,4.1
2023-02-26T17:31:26.000Z,4
2023-02-26T17:34:55.000Z,3.2
2023-02-26T17:38:23.000Z,2.8
2023-02-26T17:41:51.000Z,1.2
2023-02-26T17:45:20.000Z,1.5
2023-02-26T17:48:48.000Z,1
2023-02-26T17:51:37.000Z,0.8
2023-02-26T17:55:05.000Z,1
2023-02-26T17:58:33.000Z,1.4
2023-02-26T18:02:02.000Z,3.2
2023-02-26T18:05:30.000Z,3.9
2023-02-26T18:08:58.000Z,2.9
2023-02-26T18:12:26.000Z,2.2
2023-02-26T18:15:54.000Z,1.9
2023-02-26T18:19:22.000Z,1.2
2023-02-26T18:22:51.000Z,1.5
2023-02-26T18:26:18.000Z,1.2
2023-02-26T18:29:08.000Z,1.3
2023-02-26T18:32:36.000Z,1.2
2023-02-26T18:36:04.000Z,1.2
2023-02-26T18:39:32.000Z,1.1
2023-02-26T18:43:00.000Z,1.1
2023-02-26T18:46:28.000Z,1.7
2023-02-26T18:49:56.000Z,1.1
2023-02-26T18:53:24.000Z,1.1
2023-02-26T18:56:52.000Z,1.6
2023-02-26T19:00:20.000Z,0.9
2023-02-26T19:03:49.000Z,1.2
2023-02-26T19:06:38.000Z,1.2
2023-02-26T19:10:06.000Z,1.1
2023-02-26T19:13:34.000Z,1.1
2023-02-26T19:17:02.000Z,1.2
2023-02-26T19:20:30.000Z,1
2023-02-26T19:23:58.000Z,0.8
2023-02-26T19:27:26.000Z,0.9
2023-02-26T19:30:54.000Z,0.9
2023-02-26T19:34:22.000Z,0.9
2023-02-26T19:37:50.000Z,1.4
2023-02-26T19:41:18.000Z,1.6
2023-02-26T19:44:08.000Z,1.7
2023-02-26T19:48:04.000Z,1.7
2023-02-26T19:51:32.000Z,1.6
2023-02-26T19:55:00.000Z,1.5
2023-02-26T19:58:28.000Z,1.7
2023-02-26T20:01:55.000Z,1.6
2023-02-26T20:05:23.000Z,1.6
2023-02-26T20:08:51.000Z,1.7
2023-02-26T20:12:19.000Z,1.6
2023-02-26T20:15:47.000Z,1.6
2023-02-26T20:19:16.000Z,1.6
2023-02-26T20:22:05.000Z,1.3
2023-02-26T20:25:33.000Z,1.8
2023-02-26T20:29:01.000Z,1.6
2023-02-26T20:32:29.000Z,1.5
2023-02-26T20:35:57.000Z,1.6
2023-02-26T20:39:25.000Z,1.6
2023-02-26T20:42:53.000Z,1.7
2023-02-26T20:46:21.000Z,1.5
2023-02-26T20:49:49.000Z,1.5
2023-02-26T20:53:17.000Z,1.5
2023-02-26T20:56:45.000Z,1.8
2023-02-26T20:59:34.000Z,1.6
2023-02-26T21:03:02.000Z,1.5
2023-02-26T21:06:30.000Z,1.4
2023-02-26T21:09:58.000Z,1.7
2023-02-26T21:13:25.000Z,1.6
2023-02-26T21:16:53.000Z,1.4
2023-02-26T21:20:21.000Z,1.4
2023-02-26T21:23:49.000Z,1.6
2023-02-26T21:27:17.000Z,1.4
2023-02-26T21:30:45.000Z,1.6
2023-02-26T21:34:13.000Z,1.6
2023-02-26T21:37:15.000Z,1.8
2023-02-26T21:40:43.000Z,1.6
2023-02-26T21:44:11.000Z,1.8
2023-02-26T21:47:39.000Z,1.9
2023-02-26T21:51:07.000Z,1.5
2023-02-26T21:54:35.000Z,1.4
2023-02-26T21:58:02.000Z,1.7
2023-02-26T22:01:30.000Z,1.8
2023-02-26T22:04:58.000Z,1.8
2023-02-26T22:08:26.000Z,1.7
2023-02-26T22:11:54.000Z,1.9
2023-02-26T22:14:44.000Z,1.9
2023-02-26T22:18:12.000Z,2.1
2023-02-26T22:21:39.000Z,2.2
2023-02-26T22:25:07.000Z,1.8
2023-02-26T22:28:35.000Z,1.9
2023-02-26T22:32:03.000Z,2
2023-02-26T22:35:31.000Z,1.8
2023-02-26T22:38:59.000Z,1.7
2023-02-26T22:42:27.000Z,1.6
2023-02-26T22:45:55.000Z,1.9
2023-02-26T22:49:23.000Z,1.6
2023-02-26T22:52:12.000Z,1.5
2023-02-26T22:55:40.000Z,1.7
2023-02-26T22:59:08.000Z,1.6
2023-02-26T23:02:36.000Z,1.5
2023-02-26T23:06:04.000Z,1.6
2023-02-26T23:09:32.000Z,3.7
2023-02-26T23:12:59.000Z,2.1
2023-02-26T23:16:27.000Z,4
2023-02-26T23:19:55.000Z,2.5
2023-02-26T23:23:23.000Z,1.8
2023-02-26T23:26:51.000Z,2.2
2023-02-26T23:29:40.000Z,1.6
2023-02-26T23:33:08.000Z,1.7
2023-02-26T23:36:36.000Z,1.7
2023-02-26T23:40:04.000Z,1.8
2023-02-26T23:43:32.000Z,1.6
2023-02-26T23:47:00.000Z,1.8
2023-02-26T23:50:28.000Z,1.7
2023-02-26T23:53:55.000Z,1.5
2023-02-26T23:57:23.000Z,1.5
